createdAt,value
2023-06-30T00:00:26.803Z,16.71
2023-06-30T00:01:29.866Z,16.55
2023-06-30T00:02:31.829Z,16.54
2023-06-30T00:03:33.907Z,16.60
2023-06-30T00:04:36.753Z,16.71
2023-06-30T00:05:38.716Z,16.56
2023-06-30T00:06:40.865Z,16.52
2023-06-30T00:07:44.022Z,16.46
2023-06-30T00:08:46.320Z,16.35
2023-06-30T00:09:49.646Z,16.42
2023-06-30T00:10:51.512Z,16.52
2023-06-30T00:11:55.724Z,16.62
2023-06-30T00:12:57.689Z,16.62
2023-06-30T00:13:59.509Z,16.53
2023-06-30T00:15:01.633Z,16.50
2023-06-30T00:16:03.658Z,16.40
2023-06-30T00:17:05.918Z,16.37
2023-06-30T00:18:07.916Z,16.27
2023-06-30T00:19:10.413Z,16.34
2023-06-30T00:20:13.071Z,16.43
2023-06-30T00:21:15.155Z,16.49
2023-06-30T00:22:17.992Z,16.54
2023-06-30T00:23:21.234Z,16.43
2023-06-30T00:24:23.185Z,16.41
2023-06-30T00:25:25.058Z,16.32
2023-06-30T00:26:26.917Z,16.42
2023-06-30T00:27:29.093Z,16.53
2023-06-30T00:28:31.321Z,16.41
2023-06-30T00:29:33.229Z,16.51
2023-06-30T00:30:35.092Z,16.39
2023-06-30T00:31:37.232Z,16.43
2023-06-30T00:32:39.396Z,16.34
2023-06-30T00:33:41.334Z,16.53
2023-06-30T00:34:43.188Z,16.66
2023-06-30T00:35:45.361Z,16.74
2023-06-30T00:36:47.381Z,16.67
2023-06-30T00:37:49.507Z,16.57
2023-06-30T00:38:52.799Z,16.48
2023-06-30T00:39:54.716Z,16.35
2023-06-30T00:40:56.665Z,16.40
2023-06-30T00:41:58.630Z,16.36
2023-06-30T00:43:02.014Z,16.39
2023-06-30T00:44:04.118Z,16.31
2023-06-30T00:45:06.625Z,16.44
2023-06-30T00:46:13.301Z,16.35
2023-06-30T00:47:15.275Z,16.54
2023-06-30T00:48:18.577Z,16.62
2023-06-30T00:49:20.576Z,16.47
2023-06-30T00:50:22.599Z,16.28
2023-06-30T00:51:24.485Z,16.30
2023-06-30T00:52:26.635Z,16.28
2023-06-30T00:53:28.862Z,16.26
2023-06-30T00:54:32.439Z,16.22
2023-06-30T00:55:36.016Z,16.28
2023-06-30T00:56:37.949Z,16.32
2023-06-30T00:57:39.846Z,16.29
2023-06-30T00:58:43.326Z,16.30
2023-06-30T00:59:45.256Z,16.36
2023-06-30T01:00:47.195Z,16.48
2023-06-30T01:01:54.592Z,16.43
2023-06-30T01:03:12.668Z,16.31
2023-06-30T01:04:37.250Z,16.28
2023-06-30T01:05:56.163Z,16.31
2023-06-30T01:07:18.519Z,16.36
2023-06-30T01:08:29.470Z,16.23
2023-06-30T01:09:38.378Z,16.06
2023-06-30T01:10:44.976Z,16.17
2023-06-30T01:11:49.802Z,16.10
2023-06-30T01:12:52.488Z,16.11
2023-06-30T01:13:57.006Z,16.16
2023-06-30T01:15:00.783Z,16.16
2023-06-30T01:16:05.355Z,16.15
2023-06-30T01:17:08.496Z,16.25
2023-06-30T01:18:12.844Z,16.22
2023-06-30T01:19:27.299Z,16.13
2023-06-30T01:20:33.866Z,16.12
2023-06-30T01:21:36.848Z,16.15
2023-06-30T01:22:45.825Z,16.31
2023-06-30T01:23:52.811Z,16.32
2023-06-30T01:25:00.077Z,16.20
2023-06-30T01:26:03.977Z,16.12
2023-06-30T01:27:06.515Z,16.09
2023-06-30T01:28:09.445Z,15.91
2023-06-30T01:29:11.853Z,16.03
2023-06-30T01:30:15.213Z,15.83
2023-06-30T01:31:18.464Z,15.76
2023-06-30T01:32:20.898Z,15.82
2023-06-30T01:33:23.381Z,16.02
2023-06-30T01:34:25.828Z,16.05
2023-06-30T01:35:29.129Z,15.90
2023-06-30T01:36:31.355Z,15.99
2023-06-30T01:37:34.438Z,16.14
2023-06-30T01:38:36.556Z,16.01
2023-06-30T01:39:38.458Z,15.95
2023-06-30T01:40:43.017Z,15.82
2023-06-30T01:41:46.009Z,15.79
2023-06-30T01:42:52.563Z,15.76
2023-06-30T01:43:56.743Z,15.84
2023-06-30T01:44:59.659Z,15.81
2023-06-30T01:46:01.700Z,15.82
2023-06-30T01:47:04.813Z,15.83
2023-06-30T01:48:07.321Z,15.89
2023-06-30T01:49:11.322Z,15.90
2023-06-30T01:50:15.758Z,15.86
2023-06-30T01:51:19.190Z,15.95
2023-06-30T01:52:21.453Z,16.03
2023-06-30T01:53:23.484Z,15.88
2023-06-30T01:54:25.352Z,15.92
2023-06-30T01:55:27.872Z,16.00
2023-06-30T01:56:29.801Z,16.01
2023-06-30T01:57:32.312Z,15.73
2023-06-30T01:58:34.185Z,15.77
2023-06-30T01:59:36.165Z,15.85
2023-06-30T02:00:38.058Z,15.78
2023-06-30T02:01:40.222Z,15.78
2023-06-30T02:02:42.863Z,15.77
2023-06-30T02:03:45.967Z,15.82
2023-06-30T02:04:48.020Z,15.93
2023-06-30T02:05:51.432Z,16.06
2023-06-30T02:06:53.636Z,15.97
2023-06-30T02:07:55.528Z,15.92
2023-06-30T02:08:57.668Z,16.00
2023-06-30T02:09:59.620Z,15.90
2023-06-30T02:11:01.642Z,15.84
2023-06-30T02:12:04.370Z,15.68
2023-06-30T02:13:06.627Z,15.57
2023-06-30T02:14:08.557Z,15.47
2023-06-30T02:15:10.792Z,15.43
2023-06-30T02:16:13.713Z,15.43
2023-06-30T02:17:15.667Z,15.49
2023-06-30T02:18:20.180Z,15.42
2023-06-30T02:19:24.965Z,15.46
2023-06-30T02:20:26.807Z,15.49
2023-06-30T02:21:28.735Z,15.49
2023-06-30T02:22:30.706Z,15.51
2023-06-30T02:23:33.160Z,15.43
2023-06-30T02:24:35.091Z,15.45
2023-06-30T02:25:37.057Z,15.27
2023-06-30T02:26:38.953Z,15.36
2023-06-30T02:27:40.967Z,15.33
2023-06-30T02:28:43.160Z,15.53
2023-06-30T02:29:45.067Z,15.56
2023-06-30T02:30:46.951Z,15.53
2023-06-30T02:31:48.979Z,15.50
2023-06-30T02:32:51.123Z,15.53
2023-06-30T02:33:54.459Z,15.47
2023-06-30T02:34:56.420Z,15.44
2023-06-30T02:35:58.300Z,15.38
2023-06-30T02:37:02.044Z,15.29
2023-06-30T02:38:05.050Z,15.33
2023-06-30T02:39:07.227Z,15.38
2023-06-30T02:40:10.296Z,15.38
2023-06-30T02:41:12.318Z,15.32
2023-06-30T02:42:14.310Z,15.22
2023-06-30T02:43:16.225Z,15.34
2023-06-30T02:44:18.415Z,15.38
2023-06-30T02:45:20.818Z,15.24
2023-06-30T02:46:22.762Z,15.17
2023-06-30T02:47:24.697Z,15.08
2023-06-30T02:48:26.571Z,15.08
2023-06-30T02:49:29.319Z,15.18
2023-06-30T02:50:32.908Z,15.21
2023-06-30T02:51:34.839Z,15.26
2023-06-30T02:52:36.877Z,15.38
2023-06-30T02:53:39.436Z,15.32
2023-06-30T02:54:41.775Z,15.39
2023-06-30T02:55:44.111Z,15.38
2023-06-30T02:56:46.693Z,15.39
2023-06-30T02:57:48.603Z,15.35
2023-06-30T02:58:51.544Z,15.33
2023-06-30T02:59:53.817Z,15.39
2023-06-30T03:00:57.721Z,15.31
2023-06-30T03:02:01.076Z,15.44
2023-06-30T03:03:05.720Z,15.53
2023-06-30T03:04:08.511Z,15.43
2023-06-30T03:05:11.958Z,15.46
2023-06-30T03:06:14.445Z,15.41
2023-06-30T03:07:17.773Z,15.40
2023-06-30T03:08:20.607Z,15.35
2023-06-30T03:09:23.098Z,15.41
2023-06-30T03:10:26.219Z,15.46
2023-06-30T03:11:28.377Z,15.49
2023-06-30T03:12:30.270Z,15.46
2023-06-30T03:13:32.872Z,15.55
2023-06-30T03:14:35.184Z,15.50
2023-06-30T03:15:37.382Z,15.46
2023-06-30T03:16:39.434Z,15.47
2023-06-30T03:17:42.085Z,15.52
2023-06-30T03:18:44.447Z,15.49
2023-06-30T03:19:46.384Z,15.52
2023-06-30T03:20:49.212Z,15.58
2023-06-30T03:21:51.648Z,15.58
2023-06-30T03:22:54.767Z,15.64
2023-06-30T03:23:57.702Z,15.57
2023-06-30T03:25:01.464Z,15.69
2023-06-30T03:26:03.835Z,15.71
2023-06-30T03:27:06.473Z,15.65
2023-06-30T03:28:08.537Z,15.68
2023-06-30T03:29:10.436Z,15.57
2023-06-30T03:30:12.695Z,15.54
2023-06-30T03:31:15.749Z,15.66
2023-06-30T03:32:17.658Z,15.71
2023-06-30T03:33:19.651Z,15.74
2023-06-30T03:34:21.924Z,15.78
2023-06-30T03:35:24.721Z,15.85
2023-06-30T03:36:27.196Z,15.84
2023-06-30T03:37:29.099Z,16.03
2023-06-30T03:38:32.010Z,15.91
2023-06-30T03:39:33.930Z,15.88
2023-06-30T03:40:35.935Z,15.85
2023-06-30T03:41:38.242Z,15.99
2023-06-30T03:42:41.451Z,15.95
2023-06-30T03:43:43.325Z,15.95
2023-06-30T03:44:45.206Z,15.91
2023-06-30T03:45:47.737Z,16.05
2023-06-30T03:46:50.134Z,16.13
2023-06-30T03:47:52.858Z,16.10
2023-06-30T03:48:55.048Z,16.08
2023-06-30T03:49:56.920Z,16.14
2023-06-30T03:50:58.955Z,16.05
2023-06-30T03:52:01.171Z,16.07
2023-06-30T03:53:03.086Z,16.13
2023-06-30T03:54:05.826Z,16.15
2023-06-30T03:55:09.480Z,16.17
2023-06-30T03:56:11.693Z,16.15
2023-06-30T03:57:13.954Z,16.25
2023-06-30T03:58:15.839Z,16.23
2023-06-30T03:59:18.259Z,16.40
2023-06-30T04:00:21.467Z,16.52
2023-06-30T04:01:23.658Z,16.63
2023-06-30T04:02:25.623Z,16.72
2023-06-30T04:03:28.250Z,16.80
2023-06-30T04:04:30.508Z,16.75
2023-06-30T04:05:32.558Z,16.76
2023-06-30T04:06:34.896Z,16.76
2023-06-30T04:07:36.866Z,16.77
2023-06-30T04:08:38.962Z,16.75
2023-06-30T04:09:40.768Z,16.82
2023-06-30T04:10:42.832Z,16.76
2023-06-30T04:11:44.961Z,16.80
2023-06-30T04:12:46.837Z,16.82
2023-06-30T04:13:48.729Z,16.86
2023-06-30T04:14:50.667Z,16.92
2023-06-30T04:15:52.631Z,16.92
2023-06-30T04:16:56.786Z,17.05
2023-06-30T04:17:58.973Z,17.05
2023-06-30T04:19:00.922Z,17.11
2023-06-30T04:20:04.843Z,17.19
2023-06-30T04:21:06.743Z,17.22
2023-06-30T04:22:08.876Z,17.25
2023-06-30T04:23:10.765Z,17.27
2023-06-30T04:24:12.647Z,17.25
2023-06-30T04:25:14.796Z,17.35
2023-06-30T04:26:18.216Z,17.38
2023-06-30T04:27:20.422Z,17.33
2023-06-30T04:28:22.258Z,17.40
2023-06-30T04:29:24.525Z,17.48
2023-06-30T04:30:26.504Z,17.60
2023-06-30T04:31:28.462Z,17.62
2023-06-30T04:32:30.686Z,17.65
2023-06-30T04:33:35.154Z,17.74
2023-06-30T04:34:36.996Z,17.81
2023-06-30T04:35:39.140Z,17.83
2023-06-30T04:36:41.084Z,17.99
2023-06-30T04:37:43.280Z,18.06
2023-06-30T04:38:48.212Z,18.02
2023-06-30T04:39:51.416Z,18.10
2023-06-30T04:40:53.352Z,18.16
2023-06-30T04:41:55.199Z,18.24
2023-06-30T04:42:58.103Z,18.27
2023-06-30T04:44:00.730Z,18.34
2023-06-30T04:45:02.614Z,18.32
2023-06-30T04:46:04.546Z,18.36
2023-06-30T04:47:07.558Z,18.52
2023-06-30T04:48:09.890Z,18.56
2023-06-30T04:49:11.850Z,18.57
2023-06-30T04:50:13.713Z,18.63
2023-06-30T04:51:16.481Z,18.67
2023-06-30T04:52:18.367Z,18.71
2023-06-30T04:53:20.690Z,18.65
2023-06-30T04:54:23.465Z,18.81
2023-06-30T04:55:25.368Z,18.85
2023-06-30T04:56:27.286Z,18.99
2023-06-30T04:57:29.206Z,19.01
2023-06-30T04:58:31.471Z,19.08
2023-06-30T04:59:33.403Z,19.00
2023-06-30T05:00:35.479Z,19.00
2023-06-30T05:01:37.405Z,19.12
2023-06-30T05:02:39.377Z,19.11
2023-06-30T05:03:41.580Z,19.19
2023-06-30T05:04:43.453Z,19.28
2023-06-30T05:05:45.661Z,19.24
2023-06-30T05:06:47.789Z,19.29
2023-06-30T05:07:49.626Z,19.21
2023-06-30T05:08:51.881Z,19.20
2023-06-30T05:09:53.700Z,19.33
2023-06-30T05:10:55.602Z,19.43
2023-06-30T05:11:57.501Z,19.51
2023-06-30T05:12:59.472Z,19.64
2023-06-30T05:14:02.101Z,19.71
2023-06-30T05:15:04.270Z,19.83
2023-06-30T05:16:06.231Z,19.88
2023-06-30T05:17:08.570Z,19.65
2023-06-30T05:18:10.505Z,19.84
2023-06-30T05:19:12.722Z,19.86
2023-06-30T05:20:14.602Z,19.89
2023-06-30T05:21:16.561Z,20.05
2023-06-30T05:22:18.431Z,20.27
2023-06-30T05:23:20.494Z,20.35
2023-06-30T05:24:22.665Z,20.42
2023-06-30T05:25:24.603Z,20.49
2023-06-30T05:26:26.520Z,20.53
2023-06-30T05:27:28.428Z,20.57
2023-06-30T05:28:30.380Z,20.50
2023-06-30T05:29:33.073Z,20.67
2023-06-30T05:30:35.031Z,20.79
2023-06-30T05:31:37.026Z,20.90
2023-06-30T05:32:38.897Z,21.00
2023-06-30T05:33:40.832Z,20.91
2023-06-30T05:34:43.948Z,20.88
2023-06-30T05:35:46.059Z,21.07
2023-06-30T05:36:48.095Z,21.12
2023-06-30T05:37:49.997Z,21.27
2023-06-30T05:38:51.914Z,21.44
2023-06-30T05:39:54.336Z,21.44
2023-06-30T05:40:57.145Z,21.35
2023-06-30T05:41:59.041Z,21.46
2023-06-30T05:43:00.903Z,21.36
2023-06-30T05:44:02.850Z,21.32
2023-06-30T05:45:05.471Z,21.30
2023-06-30T05:46:07.321Z,21.45
2023-06-30T05:47:09.234Z,21.40
2023-06-30T05:48:11.039Z,21.42
2023-06-30T05:49:13.522Z,21.16
2023-06-30T05:50:15.784Z,21.15
2023-06-30T05:51:17.731Z,21.17
2023-06-30T05:52:22.686Z,21.40
2023-06-30T05:53:24.561Z,21.51
2023-06-30T05:54:26.429Z,21.54
2023-06-30T05:55:28.714Z,21.49
2023-06-30T05:56:30.896Z,21.57
2023-06-30T05:57:34.385Z,21.69
2023-06-30T05:58:39.149Z,21.74
2023-06-30T05:59:40.976Z,21.54
2023-06-30T06:00:43.278Z,21.77
2023-06-30T06:01:45.463Z,21.87
2023-06-30T06:02:47.505Z,21.85
2023-06-30T06:03:50.136Z,21.62
2023-06-30T06:04:52.874Z,21.61
2023-06-30T06:05:55.126Z,21.89
2023-06-30T06:06:57.462Z,22.01
2023-06-30T06:07:59.386Z,21.73
2023-06-30T06:09:01.236Z,21.82
2023-06-30T06:10:03.153Z,22.07
2023-06-30T06:11:05.038Z,22.32
2023-06-30T06:12:07.458Z,22.37
2023-06-30T06:13:09.601Z,22.50
2023-06-30T06:14:11.661Z,22.60
2023-06-30T06:15:13.771Z,22.64
2023-06-30T06:16:16.010Z,22.64
2023-06-30T06:17:18.420Z,22.71
2023-06-30T06:18:20.311Z,22.91
2023-06-30T06:19:22.285Z,22.90
2023-06-30T06:20:24.175Z,22.80
2023-06-30T06:21:29.180Z,22.78
2023-06-30T06:22:31.288Z,23.00
2023-06-30T06:23:33.220Z,23.24
2023-06-30T06:24:35.121Z,23.33
2023-06-30T06:25:37.019Z,23.35
2023-06-30T06:26:39.166Z,23.36
2023-06-30T06:27:41.313Z,23.39
2023-06-30T06:28:43.190Z,23.51
2023-06-30T06:29:45.029Z,23.59
2023-06-30T06:30:46.998Z,23.66
2023-06-30T06:31:52.664Z,23.37
2023-06-30T06:32:54.823Z,23.42
2023-06-30T06:33:56.776Z,23.71
2023-06-30T06:34:58.612Z,23.86
2023-06-30T06:36:00.518Z,23.96
2023-06-30T06:37:02.626Z,24.08
2023-06-30T06:38:04.786Z,24.08
2023-06-30T06:39:06.616Z,24.12
2023-06-30T06:40:09.012Z,24.26
2023-06-30T06:41:10.827Z,24.33
2023-06-30T06:42:12.683Z,24.35
2023-06-30T06:43:15.356Z,24.09
2023-06-30T06:44:17.912Z,24.14
2023-06-30T06:45:19.776Z,24.46
2023-06-30T06:46:21.649Z,24.63
2023-06-30T06:48:02.306Z,24.38
2023-06-30T06:49:04.803Z,24.48
2023-06-30T06:50:06.867Z,24.66
2023-06-30T06:51:08.823Z,24.47
2023-06-30T06:52:10.682Z,24.44
2023-06-30T06:53:19.131Z,24.51
2023-06-30T06:54:21.301Z,24.65
2023-06-30T06:55:23.160Z,24.56
2023-06-30T06:56:25.012Z,24.40
2023-06-30T06:57:27.016Z,24.62
2023-06-30T06:58:31.529Z,24.83
2023-06-30T06:59:33.662Z,24.65
2023-06-30T07:00:36.922Z,24.93
2023-06-30T07:01:38.860Z,24.98
2023-06-30T07:02:40.789Z,25.15
2023-06-30T07:03:42.854Z,25.28
2023-06-30T07:04:44.989Z,25.14
2023-06-30T07:05:47.282Z,25.02
2023-06-30T07:06:49.456Z,25.15
2023-06-30T07:07:51.324Z,25.10
2023-06-30T07:08:53.327Z,25.12
2023-06-30T07:09:55.493Z,25.21
2023-06-30T07:10:57.460Z,24.99
2023-06-30T07:11:59.488Z,25.19
2023-06-30T07:13:02.489Z,25.32
2023-06-30T07:14:04.418Z,25.31
2023-06-30T07:15:07.108Z,25.36
2023-06-30T07:16:08.971Z,25.39
2023-06-30T07:17:10.906Z,25.12
2023-06-30T07:18:13.216Z,25.31
2023-06-30T07:19:15.317Z,25.19
2023-06-30T07:20:17.535Z,24.96
2023-06-30T07:21:19.823Z,24.88
2023-06-30T07:22:22.757Z,24.90
2023-06-30T07:23:26.824Z,24.93
2023-06-30T07:24:38.251Z,25.07
2023-06-30T07:25:45.910Z,25.26
2023-06-30T07:26:48.249Z,25.31
2023-06-30T07:27:55.232Z,25.50
2023-06-30T07:28:57.133Z,25.76
2023-06-30T07:29:59.009Z,25.92
2023-06-30T07:31:01.559Z,25.89
2023-06-30T07:32:03.593Z,25.94
2023-06-30T07:33:05.715Z,26.16
2023-06-30T07:34:08.268Z,25.56
2023-06-30T07:35:10.225Z,25.46
2023-06-30T07:36:12.478Z,25.85
2023-06-30T07:37:14.302Z,25.97
2023-06-30T07:38:16.198Z,25.88
2023-06-30T07:39:19.212Z,26.03
2023-06-30T07:40:23.826Z,26.30
2023-06-30T07:41:26.815Z,26.01
2023-06-30T07:42:28.777Z,25.58
2023-06-30T07:43:31.583Z,25.71
2023-06-30T07:44:33.490Z,25.71
2023-06-30T07:45:35.432Z,25.93
2023-06-30T07:46:37.714Z,26.16
2023-06-30T07:47:43.423Z,26.15
2023-06-30T07:48:45.589Z,26.37
2023-06-30T07:49:47.615Z,26.56
2023-06-30T07:50:59.589Z,26.54
2023-06-30T07:52:09.751Z,26.48
2023-06-30T07:53:11.688Z,26.64
2023-06-30T07:54:13.580Z,26.79
2023-06-30T07:55:19.689Z,26.68
2023-06-30T07:56:21.674Z,26.92
2023-06-30T07:57:27.294Z,26.94
2023-06-30T07:58:29.161Z,27.13
2023-06-30T07:59:31.054Z,26.93
2023-06-30T08:00:33.122Z,26.59
2023-06-30T08:01:35.586Z,26.49
2023-06-30T08:02:38.366Z,26.87
2023-06-30T08:03:40.583Z,26.88
2023-06-30T08:04:42.987Z,26.95
2023-06-30T08:05:45.332Z,27.12
2023-06-30T08:06:48.591Z,27.24
2023-06-30T08:07:51.690Z,27.36
2023-06-30T08:08:53.853Z,27.49
2023-06-30T08:09:55.729Z,26.70
2023-06-30T08:10:57.606Z,27.04
2023-06-30T08:11:59.904Z,26.90
2023-06-30T08:13:01.762Z,27.22
2023-06-30T08:14:05.338Z,26.91
2023-06-30T08:15:07.819Z,26.97
2023-06-30T08:16:09.870Z,27.15
2023-06-30T08:17:12.156Z,27.36
2023-06-30T08:18:31.842Z,27.36
2023-06-30T08:19:47.655Z,27.08
2023-06-30T08:20:51.245Z,27.08
2023-06-30T08:21:53.283Z,26.81
2023-06-30T08:22:55.853Z,26.87
2023-06-30T08:23:58.013Z,26.91
2023-06-30T08:24:59.861Z,27.25
2023-06-30T08:26:01.827Z,26.96
2023-06-30T08:27:03.879Z,27.09
2023-06-30T08:28:06.232Z,27.23
2023-06-30T08:29:08.074Z,27.24
2023-06-30T08:30:10.084Z,27.48
2023-06-30T08:31:12.001Z,27.69
2023-06-30T08:32:13.921Z,27.57
2023-06-30T08:33:30.728Z,27.05
2023-06-30T08:34:38.298Z,26.90
2023-06-30T08:35:40.272Z,27.31
2023-06-30T08:36:42.098Z,27.49
2023-06-30T08:37:44.167Z,27.29
2023-06-30T08:38:46.345Z,27.60
2023-06-30T08:39:48.166Z,27.72
2023-06-30T08:40:50.001Z,27.78
2023-06-30T08:41:55.273Z,27.93
2023-06-30T08:42:59.885Z,27.47
2023-06-30T08:44:02.238Z,27.78
2023-06-30T08:45:05.287Z,28.04
2023-06-30T08:46:10.042Z,28.10
2023-06-30T08:47:14.673Z,27.81
2023-06-30T08:48:20.676Z,27.87
2023-06-30T08:49:26.010Z,27.92
2023-06-30T08:50:28.090Z,28.04
2023-06-30T08:51:30.787Z,27.99
2023-06-30T08:52:32.720Z,28.04
2023-06-30T08:53:34.807Z,27.95
2023-06-30T08:54:36.976Z,27.87
2023-06-30T08:55:38.884Z,28.02
2023-06-30T08:56:43.575Z,28.17
2023-06-30T08:57:46.399Z,28.18
2023-06-30T08:58:48.260Z,28.04
2023-06-30T08:59:50.833Z,28.14
2023-06-30T09:00:53.280Z,28.00
2023-06-30T09:01:58.045Z,27.59
2023-06-30T09:03:00.362Z,27.86
2023-06-30T09:04:03.289Z,27.82
2023-06-30T09:05:06.875Z,27.58
2023-06-30T09:06:12.468Z,27.58
2023-06-30T09:07:24.529Z,27.51
2023-06-30T09:08:35.435Z,27.58
2023-06-30T09:09:43.449Z,27.92
2023-06-30T09:10:48.205Z,28.09
2023-06-30T09:11:51.254Z,27.78
2023-06-30T09:12:58.314Z,27.95
2023-06-30T09:14:03.054Z,27.75
2023-06-30T09:15:07.908Z,27.94
2023-06-30T09:16:19.184Z,27.99
2023-06-30T09:17:22.211Z,28.23
2023-06-30T09:18:24.435Z,28.23
2023-06-30T09:19:26.699Z,28.37
2023-06-30T09:20:28.877Z,28.54
2023-06-30T09:21:31.072Z,28.58
2023-06-30T09:22:52.416Z,28.40
2023-06-30T09:23:56.209Z,28.67
2023-06-30T09:24:58.068Z,28.55
2023-06-30T09:25:59.955Z,28.63
2023-06-30T09:27:02.182Z,28.82
2023-06-30T09:28:10.963Z,28.45
2023-06-30T09:29:13.837Z,28.41
2023-06-30T09:30:15.738Z,28.52
2023-06-30T09:31:17.753Z,28.65
2023-06-30T09:32:27.229Z,28.61
2023-06-30T09:33:29.700Z,28.81
2023-06-30T09:34:31.788Z,28.68
2023-06-30T09:35:40.798Z,28.75
2023-06-30T09:36:54.250Z,28.71
2023-06-30T09:37:56.368Z,28.59
2023-06-30T09:38:58.896Z,28.48
2023-06-30T09:40:00.794Z,28.21
2023-06-30T09:41:06.525Z,28.16
2023-06-30T09:42:17.183Z,28.21
2023-06-30T09:43:21.461Z,28.53
2023-06-30T09:44:24.076Z,28.63
2023-06-30T09:45:25.967Z,28.39
2023-06-30T09:46:29.251Z,28.57
2023-06-30T09:47:31.188Z,28.60
2023-06-30T09:48:37.256Z,28.67
2023-06-30T09:49:41.114Z,28.57
2023-06-30T09:50:43.612Z,28.71
2023-06-30T09:51:47.811Z,28.56
2023-06-30T09:52:50.238Z,28.80
2023-06-30T09:53:55.461Z,29.01
2023-06-30T09:54:57.375Z,29.06
2023-06-30T09:55:59.309Z,28.83
2023-06-30T09:57:02.595Z,29.04
2023-06-30T09:58:04.423Z,29.17
2023-06-30T09:59:07.101Z,29.14
2023-06-30T10:00:25.542Z,28.86
2023-06-30T10:01:35.788Z,28.91
2023-06-30T10:02:37.846Z,29.18
2023-06-30T10:03:50.228Z,29.29
2023-06-30T10:04:52.071Z,28.87
2023-06-30T10:05:54.317Z,29.02
2023-06-30T10:06:57.361Z,28.64
2023-06-30T10:08:01.608Z,28.34
2023-06-30T10:09:05.607Z,28.87
2023-06-30T10:10:13.242Z,28.96
2023-06-30T10:11:15.714Z,29.22
2023-06-30T10:12:19.679Z,28.89
2023-06-30T10:13:22.145Z,28.46
2023-06-30T10:14:32.538Z,28.47
2023-06-30T10:15:35.894Z,28.56
2023-06-30T10:16:39.815Z,28.59
2023-06-30T10:17:45.534Z,28.29
2023-06-30T10:18:50.332Z,28.24
2023-06-30T10:19:53.174Z,28.26
2023-06-30T10:20:55.146Z,28.02
2023-06-30T10:21:57.610Z,28.26
2023-06-30T10:23:01.853Z,28.37
2023-06-30T10:24:04.033Z,28.37
2023-06-30T10:25:09.360Z,28.52
2023-06-30T10:26:15.856Z,28.72
2023-06-30T10:27:19.887Z,28.30
2023-06-30T10:28:22.322Z,28.19
2023-06-30T10:29:24.372Z,27.94
2023-06-30T10:30:27.043Z,27.85
2023-06-30T10:31:29.219Z,27.94
2023-06-30T10:32:31.284Z,28.07
2023-06-30T10:33:33.677Z,28.21
2023-06-30T10:34:36.979Z,28.58
2023-06-30T10:35:39.631Z,28.90
2023-06-30T10:36:41.728Z,28.99
2023-06-30T10:37:43.805Z,28.91
2023-06-30T10:38:48.121Z,28.80
2023-06-30T10:39:50.208Z,29.14
2023-06-30T10:41:12.326Z,29.25
2023-06-30T10:42:16.867Z,29.21
2023-06-30T10:43:18.836Z,28.94
2023-06-30T10:44:21.734Z,28.83
2023-06-30T10:45:50.613Z,28.77
2023-06-30T10:46:54.939Z,28.60
2023-06-30T10:47:57.464Z,29.03
2023-06-30T10:48:59.947Z,29.15
2023-06-30T10:50:12.923Z,29.09
2023-06-30T10:51:14.851Z,29.21
2023-06-30T10:52:34.790Z,29.10
2023-06-30T10:53:36.830Z,28.77
2023-06-30T10:54:41.775Z,28.86
2023-06-30T10:55:45.633Z,28.80
2023-06-30T10:56:48.138Z,28.89
2023-06-30T10:57:51.974Z,28.92
2023-06-30T10:58:58.709Z,29.03
2023-06-30T11:00:07.111Z,29.33
2023-06-30T11:01:09.262Z,29.00
2023-06-30T11:02:11.760Z,28.77
2023-06-30T11:03:13.736Z,28.72
2023-06-30T11:04:16.088Z,29.00
2023-06-30T11:05:31.075Z,28.99
2023-06-30T11:06:37.557Z,29.15
2023-06-30T11:07:39.567Z,29.26
2023-06-30T11:09:00.965Z,29.42
2023-06-30T11:10:06.187Z,28.81
2023-06-30T11:11:09.133Z,28.58
2023-06-30T11:12:11.281Z,28.60
2023-06-30T11:13:13.819Z,28.64
2023-06-30T11:14:30.394Z,28.71
2023-06-30T11:15:47.114Z,28.89
2023-06-30T11:17:04.904Z,29.18
2023-06-30T11:18:12.443Z,29.38
2023-06-30T11:19:28.210Z,29.48
2023-06-30T11:20:31.219Z,29.40
2023-06-30T11:21:33.446Z,28.98
2023-06-30T11:22:35.352Z,28.89
2023-06-30T11:23:39.024Z,29.26
2023-06-30T11:24:41.012Z,29.29
2023-06-30T11:25:42.881Z,29.52
2023-06-30T11:26:44.882Z,29.68
2023-06-30T11:27:47.179Z,29.61
2023-06-30T11:28:49.696Z,29.49
2023-06-30T11:29:54.352Z,29.32
2023-06-30T11:31:01.088Z,29.51
2023-06-30T11:32:03.092Z,29.62
2023-06-30T11:33:06.315Z,29.74
2023-06-30T11:34:08.657Z,29.91
2023-06-30T11:35:13.591Z,30.08
2023-06-30T11:36:17.019Z,29.77
2023-06-30T11:37:18.886Z,29.51
2023-06-30T11:38:21.258Z,29.66
2023-06-30T11:39:23.424Z,29.50
2023-06-30T11:40:25.547Z,29.55
2023-06-30T11:41:34.508Z,29.75
2023-06-30T11:42:43.025Z,29.84
2023-06-30T11:43:51.544Z,29.85
2023-06-30T11:44:54.012Z,29.66
2023-06-30T11:46:01.645Z,29.63
2023-06-30T11:47:05.612Z,29.43
2023-06-30T11:48:07.667Z,29.09
2023-06-30T11:49:10.402Z,28.65
2023-06-30T11:50:12.988Z,28.91
2023-06-30T11:51:14.976Z,28.92
2023-06-30T11:52:19.937Z,29.07
2023-06-30T11:53:21.931Z,29.24
2023-06-30T11:54:34.012Z,29.55
2023-06-30T11:55:36.176Z,29.19
2023-06-30T11:56:41.300Z,29.23
2023-06-30T11:57:47.648Z,29.23
2023-06-30T11:58:51.637Z,29.41
2023-06-30T11:59:53.526Z,29.48
2023-06-30T12:00:57.546Z,29.48
2023-06-30T12:02:01.326Z,29.41
2023-06-30T12:03:03.481Z,29.36
2023-06-30T12:04:11.221Z,29.01
2023-06-30T12:05:15.512Z,29.31
2023-06-30T12:06:24.870Z,29.59
2023-06-30T12:07:27.101Z,29.62
2023-06-30T12:08:31.878Z,29.79
2023-06-30T12:09:34.663Z,29.90
2023-06-30T12:10:40.858Z,29.44
2023-06-30T12:11:46.839Z,29.38
2023-06-30T12:12:57.806Z,29.71
2023-06-30T12:14:07.844Z,29.95
2023-06-30T12:15:12.671Z,29.84
2023-06-30T12:16:14.641Z,29.87
2023-06-30T12:17:19.282Z,29.73
2023-06-30T12:18:38.848Z,29.71
2023-06-30T12:19:45.636Z,29.53
2023-06-30T12:20:47.474Z,29.66
2023-06-30T12:22:00.983Z,29.80
2023-06-30T12:23:05.117Z,29.42
2023-06-30T12:24:08.827Z,29.34
2023-06-30T12:25:16.058Z,29.40
2023-06-30T12:26:17.929Z,29.32
2023-06-30T12:27:20.276Z,29.31
2023-06-30T12:28:22.141Z,29.45
2023-06-30T12:29:24.512Z,29.53
2023-06-30T12:30:28.761Z,29.29
2023-06-30T12:31:33.958Z,29.46
2023-06-30T12:32:38.482Z,29.32
2023-06-30T12:33:40.375Z,29.19
2023-06-30T12:34:42.825Z,29.26
2023-06-30T12:35:45.899Z,29.58
2023-06-30T12:36:56.579Z,29.64
2023-06-30T12:37:59.145Z,29.42
2023-06-30T12:39:01.044Z,29.52
2023-06-30T12:40:04.710Z,29.60
2023-06-30T12:41:06.700Z,29.71
2023-06-30T12:42:08.624Z,29.75
2023-06-30T12:43:10.503Z,29.82
2023-06-30T12:44:12.593Z,29.93
2023-06-30T12:45:15.933Z,29.99
2023-06-30T12:46:17.822Z,29.93
2023-06-30T12:47:19.703Z,29.67
2023-06-30T12:48:21.651Z,29.75
2023-06-30T12:49:23.598Z,29.80
2023-06-30T12:50:25.791Z,29.88
2023-06-30T12:51:27.818Z,29.87
2023-06-30T12:52:29.674Z,29.90
2023-06-30T12:53:31.530Z,29.99
2023-06-30T12:54:33.456Z,30.01
2023-06-30T12:55:35.612Z,29.59
2023-06-30T12:56:39.317Z,29.60
2023-06-30T12:57:43.886Z,29.77
2023-06-30T12:58:45.773Z,29.64
2023-06-30T12:59:47.638Z,29.78
2023-06-30T13:00:54.639Z,29.91
2023-06-30T13:01:56.582Z,29.91
2023-06-30T13:02:58.955Z,29.94
2023-06-30T13:04:00.938Z,29.58
2023-06-30T13:05:04.937Z,29.68
2023-06-30T13:06:07.195Z,29.91
2023-06-30T13:07:09.168Z,30.00
2023-06-30T13:08:11.096Z,29.84
2023-06-30T13:09:13.069Z,29.84
2023-06-30T13:10:15.040Z,29.92
2023-06-30T13:11:17.247Z,29.59
2023-06-30T13:12:19.510Z,29.61
2023-06-30T13:13:21.470Z,29.26
2023-06-30T13:14:23.393Z,29.66
2023-06-30T13:15:25.225Z,29.87
2023-06-30T13:16:27.641Z,29.82
2023-06-30T13:17:29.605Z,29.90
2023-06-30T13:18:31.561Z,29.59
2023-06-30T13:19:33.409Z,29.44
2023-06-30T13:20:35.250Z,29.55
2023-06-30T13:21:37.510Z,29.76
2023-06-30T13:22:50.585Z,29.78
2023-06-30T13:23:58.213Z,29.64
2023-06-30T13:25:00.111Z,29.31
2023-06-30T13:26:02.014Z,29.47
2023-06-30T13:27:04.677Z,29.49
2023-06-30T13:28:06.753Z,29.71
2023-06-30T13:29:08.679Z,29.72
2023-06-30T13:30:10.712Z,29.85
2023-06-30T13:31:12.777Z,30.01
2023-06-30T13:32:15.274Z,30.13
2023-06-30T13:33:17.209Z,30.20
2023-06-30T13:34:20.152Z,30.17
2023-06-30T13:35:22.670Z,30.16
2023-06-30T13:36:26.008Z,29.95
2023-06-30T13:37:29.695Z,29.92